createdAt,value
2018-02-25T00:02:13.355Z,98858.94
2018-02-25T00:04:40.995Z,98853.30
2018-02-25T00:07:08.511Z,98858.23
2018-02-25T00:09:36.202Z,98860.77
2018-02-25T00:12:04.124Z,98859.58
2018-02-25T00:14:31.787Z,98859.48
2018-02-25T00:17:00.563Z,98854.75
2018-02-25T00:19:28.092Z,98867.07
2018-02-25T00:21:55.658Z,98863.09
2018-02-25T00:24:24.762Z,98880.48
2018-02-25T00:26:52.423Z,98881.52
2018-02-25T00:29:21.223Z,98876.22
2018-02-25T00:31:48.914Z,98877.84
2018-02-25T00:34:16.468Z,98872.70
2018-02-25T00:36:45.307Z,98879.84
2018-02-25T00:39:13.522Z,98885.05
2018-02-25T00:41:42.683Z,98886.95
2018-02-25T00:44:11.621Z,98880.44
2018-02-25T00:46:40.570Z,98884.02
2018-02-25T00:49:08.123Z,98885.64
2018-02-25T00:51:35.648Z,98885.17
2018-02-25T00:54:04.835Z,98887.01
2018-02-25T00:56:32.509Z,98888.37
2018-02-25T00:59:00.010Z,98887.00
2018-02-25T01:01:27.565Z,98888.31
2018-02-25T01:03:56.414Z,98889.59
2018-02-25T01:06:24.234Z,98886.74
2018-02-25T01:08:51.759Z,98893.23
2018-02-25T01:11:19.579Z,98888.59
2018-02-25T01:13:47.464Z,98889.36
2018-02-25T01:16:15.693Z,98886.77
2018-02-25T01:18:44.283Z,98890.81
2018-02-25T01:21:13.158Z,98889.67
2018-02-25T01:23:40.923Z,98884.37
2018-02-25T01:26:08.712Z,98889.81
2018-02-25T01:28:36.508Z,98891.59
2018-02-25T01:31:04.025Z,98885.75
2018-02-25T01:33:33.492Z,98882.76
2018-02-25T01:36:01.156Z,98888.58
2018-02-25T01:38:28.868Z,98891.39
2018-02-25T01:40:56.427Z,98887.36
2018-02-25T01:43:24.244Z,98882.96
2018-02-25T01:45:53.490Z,98889.01
2018-02-25T01:48:32.143Z,98880.34
2018-02-25T01:51:06.444Z,98885.78
2018-02-25T01:53:37.244Z,98881.69
2018-02-25T01:59:03.608Z,98890.14
2018-02-25T02:01:31.973Z,98886.75
2018-02-25T02:03:59.851Z,98890.34
2018-02-25T02:06:27.779Z,98891.98
2018-02-25T02:08:55.553Z,98894.64
2018-02-25T02:11:23.063Z,98885.94
2018-02-25T02:13:50.610Z,98894.80
2018-02-25T02:16:19.196Z,98894.36
2018-02-25T02:18:46.818Z,98883.72
2018-02-25T02:21:15.317Z,98884.48
2018-02-25T02:29:06.107Z,98882.39
2018-02-25T02:31:33.922Z,98876.27
2018-02-25T02:34:04.526Z,98883.23
2018-02-25T02:36:36.546Z,98886.15
2018-02-25T02:39:04.122Z,98886.59
2018-02-25T02:41:32.358Z,98893.40
2018-02-25T02:44:03.610Z,98881.23
2018-02-25T02:46:31.786Z,98883.53
2018-02-25T02:48:59.310Z,98887.36
2018-02-25T02:51:27.426Z,98895.04
2018-02-25T02:53:56.644Z,98887.91
2018-02-25T02:59:26.788Z,98903.71
2018-02-25T03:01:56.365Z,98903.78
2018-02-25T03:04:23.946Z,98901.02
2018-02-25T03:06:51.631Z,98901.66
2018-02-25T03:09:19.274Z,98905.48
2018-02-25T03:11:46.783Z,98910.95
2018-02-25T03:14:14.305Z,98909.72
2018-02-25T03:16:41.816Z,98911.47
2018-02-25T03:19:09.327Z,98913.30
2018-02-25T03:21:37.687Z,98908.33
2018-02-25T03:24:06.798Z,98906.31
2018-02-25T03:26:36.106Z,98911.77
2018-02-25T03:29:03.636Z,98903.80
2018-02-25T03:31:31.204Z,98899.54
2018-02-25T03:33:59.991Z,98903.32
2018-02-25T03:36:27.668Z,98905.68
2018-02-25T03:38:55.657Z,98909.20
2018-02-25T03:41:23.322Z,98912.34
2018-02-25T03:43:50.869Z,98908.84
2018-02-25T03:46:21.614Z,98914.80
2018-02-25T03:51:32.699Z,98910.87
2018-02-25T03:54:00.719Z,98907.45
2018-02-25T03:56:28.235Z,98917.48
2018-02-25T03:58:55.751Z,98920.75
2018-02-25T04:01:23.263Z,98915.94
2018-02-25T04:03:50.759Z,98920.67
2018-02-25T04:06:18.334Z,98918.72
2018-02-25T04:08:46.812Z,98922.38
2018-02-25T04:11:15.514Z,98923.06
2018-02-25T04:13:43.686Z,98914.38
2018-02-25T04:16:11.545Z,98922.94
2018-02-25T04:18:40.254Z,98919.08
2018-02-25T04:21:08.001Z,98920.83
2018-02-25T04:23:36.385Z,98911.84
2018-02-25T04:26:04.879Z,98914.66
2018-02-25T04:28:33.558Z,98915.97
2018-02-25T04:31:01.350Z,98909.69
2018-02-25T04:33:30.636Z,98917.69
2018-02-25T04:35:58.167Z,98923.38
2018-02-25T04:38:25.678Z,98921.70
2018-02-25T04:40:53.252Z,98927.39
2018-02-25T04:43:21.910Z,98926.78
2018-02-25T04:45:50.697Z,98933.43
2018-02-25T04:48:18.377Z,98927.79
2018-02-25T04:50:45.916Z,98936.14
2018-02-25T04:53:13.437Z,98936.50
2018-02-25T04:55:42.797Z,98939.03
2018-02-25T04:58:10.463Z,98935.33
2018-02-25T05:00:37.965Z,98938.67
2018-02-25T05:03:05.496Z,98936.36
2018-02-25T05:05:33.003Z,98934.33
2018-02-25T05:08:00.559Z,98930.34
2018-02-25T05:10:29.109Z,98931.84
2018-02-25T05:12:56.610Z,98935.70
2018-02-25T05:15:24.850Z,98928.99
2018-02-25T05:17:53.642Z,98936.50
2018-02-25T05:20:21.188Z,98946.24
2018-02-25T05:22:49.259Z,98941.55
2018-02-25T05:25:16.934Z,98942.26
2018-02-25T05:27:44.460Z,98945.72
2018-02-25T05:30:13.404Z,98949.98
2018-02-25T05:32:42.080Z,98951.91
2018-02-25T05:35:09.715Z,98945.78
2018-02-25T05:37:37.266Z,98939.80
2018-02-25T05:40:04.765Z,98937.70
2018-02-25T05:42:33.231Z,98947.36
2018-02-25T05:45:01.878Z,98954.03
2018-02-25T05:47:30.301Z,98947.98
2018-02-25T05:49:57.822Z,98954.69
2018-02-25T05:52:25.357Z,98950.70
2018-02-25T05:54:54.000Z,98956.54
2018-02-25T05:57:23.113Z,98963.38
2018-02-25T05:59:51.970Z,98962.59
2018-02-25T06:02:20.480Z,98968.95
2018-02-25T06:04:48.618Z,98966.92
2018-02-25T06:07:16.708Z,98968.64
2018-02-25T06:09:45.281Z,98970.17
2018-02-25T06:12:13.897Z,98980.66
2018-02-25T06:14:42.015Z,98982.59
2018-02-25T06:17:09.537Z,98988.03
2018-02-25T06:19:37.178Z,98995.88
2018-02-25T06:22:06.512Z,98999.30
2018-02-25T06:24:34.264Z,98996.41
2018-02-25T06:27:02.674Z,98998.87
2018-02-25T06:29:31.099Z,99001.49
2018-02-25T06:31:59.004Z,99003.81
2018-02-25T06:34:26.729Z,99004.92
2018-02-25T06:36:54.378Z,99010.27
2018-02-25T06:39:21.925Z,99005.01
2018-02-25T06:41:50.400Z,99006.33
2018-02-25T06:44:17.910Z,99007.11
2018-02-25T06:46:45.444Z,99011.32
2018-02-25T06:49:13.975Z,99011.98
2018-02-25T06:51:41.498Z,99009.33
2018-02-25T06:54:09.259Z,99011.36
2018-02-25T06:56:36.778Z,99010.37
2018-02-25T06:59:04.303Z,99015.55
2018-02-25T07:01:37.452Z,99014.83
2018-02-25T07:04:04.982Z,99018.73
2018-02-25T07:06:33.730Z,99023.44
2018-02-25T07:09:01.588Z,99022.95
2018-02-25T07:11:29.104Z,99026.88
2018-02-25T07:13:56.702Z,99020.23
2018-02-25T07:16:24.342Z,99025.89
2018-02-25T07:18:51.864Z,99024.11
2018-02-25T07:21:19.716Z,99033.95
2018-02-25T07:23:47.224Z,99031.32
2018-02-25T07:26:16.751Z,99031.64
2018-02-25T07:28:44.262Z,99024.67
2018-02-25T07:31:11.843Z,99028.61
2018-02-25T07:33:40.631Z,99030.59
2018-02-25T07:36:12.781Z,99031.39
2018-02-25T07:38:41.299Z,99026.17
2018-02-25T07:44:04.744Z,99038.09
2018-02-25T07:46:32.286Z,99038.64
2018-02-25T07:48:59.814Z,99036.30
2018-02-25T07:51:32.345Z,99044.19
2018-02-25T07:54:01.169Z,99038.61
2018-02-25T07:56:28.667Z,99037.11
2018-02-25T07:58:57.434Z,99038.86
2018-02-25T08:01:25.903Z,99031.20
2018-02-25T08:07:08.353Z,99027.33
2018-02-25T08:15:33.249Z,99019.36
2018-02-25T08:18:07.211Z,99029.37
2018-02-25T08:23:39.440Z,99030.05
2018-02-25T08:26:26.661Z,99030.04
2018-02-25T08:32:00.500Z,99030.41
2018-02-25T08:37:10.589Z,99030.01
2018-02-25T08:43:01.443Z,99028.27
2018-02-25T08:45:29.640Z,99026.98
2018-02-25T08:47:57.154Z,99031.64
2018-02-25T08:50:24.699Z,99025.70
2018-02-25T08:52:52.208Z,99020.73
2018-02-25T08:55:19.783Z,99022.59
2018-02-25T08:57:47.293Z,99016.87
2018-02-25T09:00:14.919Z,99021.12
2018-02-25T09:02:42.459Z,99026.83
2018-02-25T09:05:09.971Z,99023.36
2018-02-25T09:10:21.444Z,99014.56
2018-02-25T09:16:02.361Z,99018.66
2018-02-25T09:18:33.005Z,99017.08
2018-02-25T09:21:05.379Z,99014.50
2018-02-25T09:23:32.943Z,99012.95
2018-02-25T09:26:00.450Z,99012.05
2018-02-25T09:28:28.018Z,99013.71
2018-02-25T09:30:55.665Z,99000.41
2018-02-25T09:33:23.197Z,99004.36
2018-02-25T09:35:50.719Z,98991.06
2018-02-25T09:38:18.242Z,98998.45
2018-02-25T09:40:45.749Z,98992.98
2018-02-25T09:43:13.290Z,98996.65
2018-02-25T09:45:40.828Z,98997.97
2018-02-25T09:48:08.416Z,98992.47
2018-02-25T09:50:35.941Z,98995.09
2018-02-25T09:53:03.454Z,98988.14
2018-02-25T09:55:31.089Z,98984.59
2018-02-25T09:57:58.599Z,98985.72
2018-02-25T10:00:26.141Z,98982.91
2018-02-25T10:02:53.659Z,98979.67
2018-02-25T10:05:21.276Z,98968.98
2018-02-25T10:07:48.793Z,98979.77
2018-02-25T10:10:16.324Z,98976.17
2018-02-25T10:12:43.877Z,98976.30
2018-02-25T10:15:11.393Z,98967.70
2018-02-25T10:17:38.927Z,98974.63
2018-02-25T10:20:07.046Z,98967.96
2018-02-25T10:22:34.551Z,98972.42
2018-02-25T10:25:02.869Z,98958.98
2018-02-25T10:27:30.427Z,98963.64
2018-02-25T10:29:57.996Z,98965.88
2018-02-25T10:32:25.537Z,98963.48
2018-02-25T10:34:53.063Z,98956.86
2018-02-25T10:37:20.582Z,98962.40
2018-02-25T10:39:48.116Z,98954.26
2018-02-25T10:42:15.738Z,98956.27
2018-02-25T10:44:43.269Z,98953.70
2018-02-25T10:47:10.803Z,98951.56
2018-02-25T10:49:38.322Z,98943.35
2018-02-25T10:52:05.835Z,98942.72
2018-02-25T10:54:33.381Z,98939.13
2018-02-25T10:57:00.927Z,98941.33
2018-02-25T10:59:28.448Z,98931.78
2018-02-25T11:01:55.952Z,98931.63
2018-02-25T11:04:23.467Z,98930.48
2018-02-25T11:06:50.982Z,98932.44
2018-02-25T11:09:18.497Z,98932.79
2018-02-25T11:11:46.037Z,98922.78
2018-02-25T11:14:13.557Z,98924.46
2018-02-25T11:16:41.072Z,98913.34
2018-02-25T11:19:08.656Z,98924.63
2018-02-25T11:21:36.170Z,98922.35
2018-02-25T11:24:03.667Z,98915.16
2018-02-25T11:26:31.190Z,98913.48
2018-02-25T11:28:58.699Z,98913.55
2018-02-25T11:31:26.304Z,98914.36
2018-02-25T11:33:53.795Z,98914.83
2018-02-25T11:36:21.464Z,98897.81
2018-02-25T11:38:48.966Z,98898.01
2018-02-25T11:41:16.496Z,98906.27
2018-02-25T11:43:44.023Z,98904.97
2018-02-25T11:46:11.515Z,98893.46
2018-02-25T11:48:39.037Z,98892.59
2018-02-25T11:51:06.558Z,98893.08
2018-02-25T11:53:34.104Z,98898.33
2018-02-25T11:56:01.641Z,98891.71
2018-02-25T11:58:29.154Z,98885.42
2018-02-25T12:00:56.676Z,98877.77
2018-02-25T12:03:24.184Z,98882.98
2018-02-25T12:05:51.701Z,98863.63
2018-02-25T12:08:19.290Z,98867.09
2018-02-25T12:10:46.796Z,98868.75
2018-02-25T12:13:14.366Z,98871.30
2018-02-25T12:15:41.914Z,98867.73
2018-02-25T12:18:09.443Z,98865.06
2018-02-25T12:20:36.988Z,98870.16
2018-02-25T12:23:04.496Z,98861.91
2018-02-25T12:25:32.132Z,98855.67
2018-02-25T12:27:59.679Z,98859.89
2018-02-25T12:30:27.232Z,98860.34
2018-02-25T12:32:54.736Z,98858.21
2018-02-25T12:35:22.357Z,98853.59
2018-02-25T12:37:49.925Z,98837.75
2018-02-25T12:40:17.456Z,98842.28
2018-02-25T12:42:44.993Z,98832.39
2018-02-25T12:45:12.577Z,98828.34
2018-02-25T12:47:40.139Z,98825.14
2018-02-25T12:50:07.634Z,98823.47
2018-02-25T12:52:35.177Z,98817.78
2018-02-25T12:55:02.696Z,98823.66
2018-02-25T12:57:30.215Z,98821.88
2018-02-25T12:59:57.742Z,98813.66
2018-02-25T13:02:25.251Z,98818.14
2018-02-25T13:04:52.774Z,98817.34
2018-02-25T13:07:20.285Z,98820.09
2018-02-25T13:09:47.796Z,98812.38
2018-02-25T13:12:15.332Z,98815.19
2018-02-25T13:14:42.846Z,98812.17
2018-02-25T13:17:10.504Z,98815.16
2018-02-25T13:19:38.011Z,98812.98
2018-02-25T13:22:05.532Z,98804.30
2018-02-25T13:24:33.034Z,98808.06
2018-02-25T13:27:00.555Z,98802.92
2018-02-25T13:29:28.301Z,98801.98
2018-02-25T13:31:57.994Z,98802.01
2018-02-25T13:34:26.062Z,98800.12
2018-02-25T13:36:54.505Z,98793.34
2018-02-25T13:39:23.664Z,98782.78
2018-02-25T13:41:54.753Z,98795.11
2018-02-25T13:44:22.508Z,98790.42
2018-02-25T13:46:50.516Z,98787.38
2018-02-25T13:49:19.174Z,98777.52
2018-02-25T13:51:50.143Z,98784.50
2018-02-25T13:54:19.222Z,98771.39
2018-02-25T13:56:47.339Z,98784.50
2018-02-25T13:59:20.050Z,98777.33
2018-02-25T14:01:49.789Z,98776.05
2018-02-25T14:04:19.834Z,98778.52
2018-02-25T14:06:47.867Z,98774.17
2018-02-25T14:09:17.275Z,98776.81
2018-02-25T14:11:45.572Z,98774.31
2018-02-25T14:14:19.390Z,98776.65
2018-02-25T14:16:47.460Z,98780.25
2018-02-25T14:19:15.640Z,98783.01
2018-02-25T14:21:45.893Z,98785.12
2018-02-25T14:24:22.814Z,98780.69
2018-02-25T14:26:51.595Z,98786.16
2018-02-25T14:29:19.695Z,98781.59
2018-02-25T14:31:47.318Z,98772.10
2018-02-25T14:34:16.482Z,98775.11
2018-02-25T14:36:44.332Z,98770.98
2018-02-25T14:39:16.799Z,98771.56
2018-02-25T14:41:49.600Z,98775.42
2018-02-25T14:44:19.079Z,98772.60
2018-02-25T14:46:47.239Z,98771.20
2018-02-25T14:49:17.472Z,98768.63
2018-02-25T14:51:45.176Z,98776.61
2018-02-25T14:54:16.986Z,98765.25
2018-02-25T14:56:47.281Z,98773.56
2018-02-25T14:59:19.517Z,98772.70
2018-02-25T15:01:47.073Z,98783.55
2018-02-25T15:04:14.624Z,98776.64
2018-02-25T15:06:42.163Z,98774.84
2018-02-25T15:09:09.681Z,98772.45
2018-02-25T15:11:37.191Z,98766.27
2018-02-25T15:14:04.706Z,98770.84
2018-02-25T15:16:32.217Z,98766.41
2018-02-25T15:18:59.840Z,98776.96
2018-02-25T15:21:27.368Z,98765.31
2018-02-25T15:23:54.864Z,98774.91
2018-02-25T15:26:22.472Z,98778.05
2018-02-25T15:28:50.004Z,98778.09
2018-02-25T15:31:17.525Z,98777.55
2018-02-25T15:33:45.078Z,98783.49
2018-02-25T15:36:12.600Z,98783.73
2018-02-25T15:38:40.098Z,98788.87
2018-02-25T15:41:07.594Z,98773.50
2018-02-25T15:43:35.854Z,98779.11
2018-02-25T15:46:03.386Z,98778.41
2018-02-25T15:48:30.892Z,98775.63
2018-02-25T15:50:58.415Z,98784.16
2018-02-25T15:53:26.745Z,98780.56
2018-02-25T15:55:54.294Z,98784.50
2018-02-25T15:58:21.796Z,98789.57
2018-02-25T16:00:49.310Z,98799.40
2018-02-25T16:03:16.812Z,98809.59
2018-02-25T16:05:44.325Z,98807.22
2018-02-25T16:08:11.819Z,98809.71
2018-02-25T16:10:39.318Z,98811.23
2018-02-25T16:13:06.813Z,98809.78
2018-02-25T16:15:34.430Z,98814.72
2018-02-25T16:18:01.919Z,98808.41
2018-02-25T16:20:29.556Z,98815.93
2018-02-25T16:22:57.079Z,98820.30
2018-02-25T16:25:24.633Z,98813.79
2018-02-25T16:27:52.142Z,98821.25
2018-02-25T16:30:19.671Z,98817.73
2018-02-25T16:32:47.271Z,98813.25
2018-02-25T16:35:14.798Z,98819.05
2018-02-25T16:37:42.385Z,98826.16
2018-02-25T16:40:09.900Z,98828.16
2018-02-25T16:42:37.423Z,98832.99
2018-02-25T16:45:04.935Z,98830.38
2018-02-25T16:47:32.441Z,98836.06
2018-02-25T16:50:00.933Z,98842.68
2018-02-25T16:52:28.450Z,98837.28
2018-02-25T16:54:56.198Z,98844.44
2018-02-25T16:57:23.898Z,98846.80
2018-02-25T16:59:51.505Z,98853.86
2018-02-25T17:02:19.047Z,98855.47
2018-02-25T17:04:46.640Z,98858.58
2018-02-25T17:07:14.216Z,98861.13
2018-02-25T17:09:41.813Z,98867.38
2018-02-25T17:12:09.318Z,98873.03
2018-02-25T17:14:36.834Z,98876.69
2018-02-25T17:17:04.363Z,98875.80
2018-02-25T17:19:31.904Z,98885.44
2018-02-25T17:22:00.053Z,98883.99
2018-02-25T17:24:27.558Z,98886.42
2018-02-25T17:26:55.099Z,98884.61
2018-02-25T17:29:22.687Z,98892.58
2018-02-25T17:31:50.201Z,98889.04
2018-02-25T17:34:17.711Z,98898.30
2018-02-25T17:36:45.861Z,98888.40
2018-02-25T17:39:13.723Z,98898.53
2018-02-25T17:41:41.241Z,98898.05
2018-02-25T17:44:09.053Z,98896.28
2018-02-25T17:46:36.642Z,98889.66
2018-02-25T17:49:04.794Z,98895.92
2018-02-25T17:51:32.356Z,98891.87
2018-02-25T17:53:59.963Z,98895.30
2018-02-25T17:56:31.129Z,98893.36
2018-02-25T17:59:02.499Z,98889.47
2018-02-25T18:01:30.784Z,98892.87
2018-02-25T18:03:58.384Z,98885.59
2018-02-25T18:06:26.156Z,98891.45
2018-02-25T18:08:54.018Z,98887.03
2018-02-25T18:11:21.538Z,98890.02
2018-02-25T18:13:49.084Z,98886.45
2018-02-25T18:16:17.175Z,98889.39
2018-02-25T18:18:44.744Z,98888.05
2018-02-25T18:21:12.285Z,98883.28
2018-02-25T18:23:39.825Z,98888.72
2018-02-25T18:26:10.618Z,98885.72
2018-02-25T18:28:38.392Z,98881.59
2018-02-25T18:31:06.450Z,98890.05
2018-02-25T18:33:34.009Z,98889.95
2018-02-25T18:36:07.917Z,98885.59
2018-02-25T18:38:35.416Z,98889.80
2018-02-25T18:41:02.969Z,98890.90
2018-02-25T18:43:30.492Z,98889.41
2018-02-25T18:45:58.010Z,98888.34
2018-02-25T18:48:25.524Z,98888.22
2018-02-25T18:50:53.084Z,98892.55
2018-02-25T18:53:20.701Z,98888.66
2018-02-25T18:55:48.274Z,98896.56
2018-02-25T18:58:15.771Z,98891.36
2018-02-25T19:00:43.337Z,98900.30
2018-02-25T19:03:11.775Z,98901.76
2018-02-25T19:05:39.295Z,98903.44
2018-02-25T19:08:06.798Z,98896.69
2018-02-25T19:10:34.282Z,98898.33
2018-02-25T19:13:02.760Z,98892.42
2018-02-25T19:15:30.379Z,98890.17
2018-02-25T19:17:57.892Z,98899.48
2018-02-25T19:20:25.418Z,98896.30
2018-02-25T19:22:53.002Z,98895.05
2018-02-25T19:25:20.512Z,98893.74
2018-02-25T19:27:49.102Z,98899.75
2018-02-25T19:30:16.710Z,98900.53
2018-02-25T19:32:44.219Z,98900.09
2018-02-25T19:35:11.742Z,98893.47
2018-02-25T19:37:44.758Z,98895.65
2018-02-25T19:40:12.268Z,98899.41
2018-02-25T19:42:39.783Z,98895.52
2018-02-25T19:45:07.639Z,98897.27
2018-02-25T19:47:35.218Z,98892.97
2018-02-25T19:50:03.616Z,98893.50
2018-02-25T19:52:31.206Z,98900.69
2018-02-25T19:54:58.738Z,98901.76
2018-02-25T19:57:26.255Z,98899.64
2018-02-25T19:59:53.763Z,98896.72
2018-02-25T20:02:21.269Z,98898.55
2018-02-25T20:04:48.883Z,98897.64
2018-02-25T20:07:16.463Z,98894.55
2018-02-25T20:09:44.071Z,98899.55
2018-02-25T20:12:11.642Z,98895.72
2018-02-25T20:14:39.164Z,98903.82
2018-02-25T20:17:06.691Z,98905.44
2018-02-25T20:19:34.351Z,98901.13
2018-02-25T20:22:01.865Z,98903.32
2018-02-25T20:24:29.446Z,98901.13
2018-02-25T20:26:57.070Z,98899.19
2018-02-25T20:29:24.570Z,98906.00
2018-02-25T20:31:52.125Z,98902.17
2018-02-25T20:34:19.645Z,98904.83
2018-02-25T20:36:47.182Z,98901.88
2018-02-25T20:39:16.073Z,98900.83
2018-02-25T20:41:43.720Z,98899.25
2018-02-25T20:44:11.227Z,98905.97
2018-02-25T20:46:38.929Z,98909.84
2018-02-25T20:49:06.433Z,98916.08
2018-02-25T20:51:33.953Z,98896.20
2018-02-25T20:54:01.484Z,98906.64
2018-02-25T20:56:29.275Z,98899.76
2018-02-25T20:58:56.780Z,98902.31
2018-02-25T21:01:24.362Z,98901.03
2018-02-25T21:03:51.871Z,98903.82
2018-02-25T21:06:19.900Z,98896.87
2018-02-25T21:08:47.808Z,98896.23
2018-02-25T21:11:16.509Z,98895.42
2018-02-25T21:13:44.328Z,98896.97
2018-02-25T21:16:12.820Z,98897.81
2018-02-25T21:18:41.769Z,98900.20
2018-02-25T21:21:09.560Z,98901.91
2018-02-25T21:23:37.087Z,98905.97
2018-02-25T21:26:04.639Z,98901.88
2018-02-25T21:28:32.229Z,98907.69
2018-02-25T21:30:59.809Z,98906.38
2018-02-25T21:33:27.314Z,98908.36
2018-02-25T21:35:54.944Z,98902.61
2018-02-25T21:38:22.528Z,98906.00
2018-02-25T21:40:50.035Z,98908.45
2018-02-25T21:43:18.800Z,98911.34
2018-02-25T21:45:46.498Z,98915.93
2018-02-25T21:48:14.278Z,98917.47
2018-02-25T21:50:42.147Z,98917.01
2018-02-25T21:53:15.293Z,98917.95
2018-02-25T21:58:57.158Z,98914.02
2018-02-25T22:01:31.578Z,98922.03
2018-02-25T22:03:59.131Z,98916.27
2018-02-25T22:06:26.725Z,98919.05
2018-02-25T22:08:54.285Z,98916.75
2018-02-25T22:11:23.891Z,98920.66
2018-02-25T22:13:51.544Z,98922.11
2018-02-25T22:16:20.842Z,98922.55
2018-02-25T22:18:49.084Z,98925.61
2018-02-25T22:21:16.648Z,98922.06
2018-02-25T22:23:47.384Z,98927.09
2018-02-25T22:26:17.021Z,98924.63
2018-02-25T22:28:45.284Z,98931.61
2018-02-25T22:31:18.834Z,98926.83
2018-02-25T22:33:47.500Z,98927.49
2018-02-25T22:36:16.040Z,98917.70
2018-02-25T22:38:44.268Z,98911.69
2018-02-25T22:41:14.552Z,98917.27
2018-02-25T22:43:43.801Z,98917.59
2018-02-25T22:46:12.537Z,98915.91
2018-02-25T22:48:44.501Z,98917.95
2018-02-25T22:51:13.907Z,98918.75
2018-02-25T22:53:41.600Z,98919.95
2018-02-25T22:56:09.877Z,98919.95
2018-02-25T22:58:37.504Z,98923.58
2018-02-25T23:01:05.021Z,98921.39
2018-02-25T23:03:32.565Z,98916.84
2018-02-25T23:06:01.344Z,98924.15
2018-02-25T23:08:28.867Z,98921.88
2018-02-25T23:10:57.538Z,98925.23
2018-02-25T23:13:26.174Z,98922.30
2018-02-25T23:15:57.750Z,98923.30
2018-02-25T23:18:26.483Z,98927.88
2018-02-25T23:20:55.808Z,98935.80
2018-02-25T23:23:23.327Z,98934.09
2018-02-25T23:25:52.860Z,98933.20
2018-02-25T23:28:21.502Z,98931.73
2018-02-25T23:30:50.382Z,98928.31
2018-02-25T23:33:18.562Z,98935.88
2018-02-25T23:35:47.381Z,98930.66
2018-02-25T23:38:17.317Z,98932.05
2018-02-25T23:40:45.319Z,98933.00
2018-02-25T23:43:14.187Z,98935.42
2018-02-25T23:45:42.384Z,98932.40
2018-02-25T23:48:13.421Z,98924.20
2018-02-25T23:50:42.260Z,98925.15
2018-02-25T23:53:11.525Z,98922.53
2018-02-25T23:55:40.056Z,98923.56
2018-02-25T23:58:09.505Z,98922.24
